Stations météo

Publicité
Rodkallen, Suède (2188): Température de l'air & dewpoint: 13.04.2019 02:00:00 - 19.04.2019 02:00:00 (CEST)Rodkallen, Suède (2188): Vitesse du vent & gusts: 13.04.2019 02:00:00 - 19.04.2019 02:00:00 (CEST)Rodkallen, Suède (2188): Direction du vent: 13.04.2019 02:00:00 - 19.04.2019 02:00:00 (CEST)Rodkallen, Suède (2188): visibility: 13.04.2019 02:00:00 - 19.04.2019 02:00:00 (CEST)Rodkallen, Suède (2188): Quantités de précipitations: 13.04.2019 02:00:00 - 19.04.2019 02:00:00 (CEST)
Date & Time tt [°C] td [°C] ff [km/h] ff [knt] fx [km/h] fx [knt] dd vv [km] rr [mm]
19.04.2019 02:00:00 3,4 0,4 14 8 20 11 WSW 48 0,0
19.04.2019 01:00:00 3,6 0,1 16 9 24 13 WSW 50 0,0
19.04.2019 00:00:00 4,1 -0,3 23 12 28 15 WSW 50 0,0
18.04.2019 23:00:00 4,0 -0,4 23 13 29 16 W 50 0,0
18.04.2019 22:00:00 3,4 0,6 21 11 23 12 W 50 0,0
18.04.2019 21:00:00 3,1 1,3 16 9 20 11 W 50 0,0
18.04.2019 20:00:00 1,9 0,9 8 5 10 5 WSW 25 0,0
18.04.2019 19:00:00 2,1 0,6 7 4 11 6 SW 36 0,0
18.04.2019 18:00:00 2,5 0,2 9 5 11 6 S 38 0,0
18.04.2019 17:00:00 3,1 -0,2 10 6 16 9 S 50 0,0
18.04.2019 16:00:00 3,2 -0,4 15 8 23 12 SSE 46 0,0
18.04.2019 15:00:00 3,2 -0,6 16 9 22 12 SSE 39 0,0
18.04.2019 14:00:00 3,2 -0,3 17 9 23 12 SSE 42 0,0
18.04.2019 13:00:00 2,8 -0,1 16 9 20 11 SSE 41 0,0
18.04.2019 12:00:00 3,0 -0,1 14 8 17 9 S 43 0,0
18.04.2019 11:00:00 3,0 -0,1 12 6 16 9 S 46 0,0
18.04.2019 10:00:00 2,8 -0,3 11 6 13 7 S 46 0,0
18.04.2019 09:00:00 2,4 -0,5 8 5 11 6 SSE 39 0,0
18.04.2019 08:00:00 1,9 0,0 8 4 10 5 SSE 41 0,0
18.04.2019 07:00:00 0,8 -0,5 10 5 11 6 S 50 0,0
18.04.2019 06:00:00 0,7 -0,6 6 3 8 4 E 50 0,0
18.04.2019 05:00:00 0,5 -1,1 0 0 13 7 N 50 0,0
18.04.2019 04:00:00 1,1 -0,7 8 4 8 4 WSW 50 0,0
18.04.2019 03:00:00 1,1 -0,8 4 2 9 5 W 50 0,0
18.04.2019 02:00:00 1,5 -0,6 6 4 10 6 WSW 50 0,0
18.04.2019 01:00:00 1,5 -0,7 9 5 10 6 SW 50 0,0
18.04.2019 00:00:00 2,1 -0,2 8 4 11 6 WSW 50 0,0
17.04.2019 23:00:00 2,4 -0,4 12 6 17 9 WSW 50 0,0
17.04.2019 22:00:00 2,6 -0,5 13 7 16 9 WSW 50 0,0
17.04.2019 21:00:00 2,3 -0,3 13 7 16 9 WSW 50 0,0
17.04.2019 20:00:00 2,4 0,0 9 5 10 5 WSW 50 0,0
17.04.2019 19:00:00 2,8 0,2 9 5 10 5 WSW 50 0,0
17.04.2019 18:00:00 3,0 0,2 9 5 11 6 SSW 46 0,0
17.04.2019 17:00:00 6,6 -1,3 0 0 9 5 N 50 0,0
17.04.2019 16:00:00 5,3 -2,1 8 4 15 8 N 43 0,0
17.04.2019 15:00:00 4,0 -1,4 12 6 18 10 N 50 0,0
17.04.2019 14:00:00 4,0 -1,4 8 5 16 8 N 50 0,0
17.04.2019 13:00:00 4,0 -1,2 14 7 16 9 N 43 0,0
17.04.2019 12:00:00 3,2 -1,0 11 6 18 10 N 47 0,0
17.04.2019 11:00:00 2,3 -1,1 11 6 21 12 N 43 0,0
17.04.2019 10:00:00 1,7 -1,4 16 9 25 13 N 45 0,0
17.04.2019 09:00:00 1,5 -1,7 20 11 26 14 N 50 0,0
17.04.2019 08:00:00 0,7 -2,0 13 7 22 12 NNW 50 0,0
17.04.2019 07:00:00 -0,2 -2,1 14 7 22 12 NNW 50 0,0
17.04.2019 06:00:00 -0,8 -1,8 16 8 21 11 NNW 50 0,0
17.04.2019 05:00:00 -0,1 -0,9 13 7 18 10 NNW 50 0,0
17.04.2019 04:00:00 0,5 -0,4 9 5 13 7 NW 50 0,0
17.04.2019 03:00:00 1,6 0,1 8 5 16 8 SW 50 0,0
17.04.2019 02:00:00 2,0 0,2 14 8 16 9 SSW 50 0,0
17.04.2019 01:00:00 2,1 -0,2 13 7 16 8 S 50 0,0
17.04.2019 00:00:00 2,3 -0,1 13 7 20 11 S 50 0,0
16.04.2019 23:00:00 2,4 -0,2 10 6 17 9 SSE 50 0,0
16.04.2019 22:00:00 2,2 -0,1 14 8 18 10 S 50 0,0
16.04.2019 21:00:00 2,4 -0,5 16 9 19 11 S 50 0,0
16.04.2019 20:00:00 2,6 -0,7 14 8 18 10 S 50 0,0
16.04.2019 19:00:00 2,8 -0,5 15 8 19 10 S 50 0,0
16.04.2019 18:00:00 3,0 -0,6 10 6 18 10 SSE 47 0,0
16.04.2019 17:00:00 2,9 0,0 14 8 18 10 SSE 45 0,0
16.04.2019 16:00:00 2,9 0,1 10 5 17 9 SSE 48 0,0
16.04.2019 15:00:00 3,0 -0,1 13 7 16 9 SSE 39 0,0
16.04.2019 14:00:00 3,0 0,4 11 6 14 7 SSE 39 0,0
16.04.2019 13:00:00 2,9 0,1 6 4 9 5 SE 39 0,0
16.04.2019 12:00:00 2,4 -0,5 6 3 8 4 E 26 0,0
16.04.2019 11:00:00 2,9 -0,6 3 1 8 4 E 38 0,0
16.04.2019 10:00:00 1,7 -0,9 6 4 10 5 ENE 32 0,0
16.04.2019 09:00:00 1,9 -1,2 6 3 9 5 N 39 0,0
16.04.2019 08:00:00 0,5 -1,7 8 4 11 6 N 42 0,0
16.04.2019 07:00:00 -0,2 -2,3 8 4 13 7 N 38 0,0
16.04.2019 06:00:00 -0,5 -2,2 9 5 12 6 NNW 40 0,0
16.04.2019 05:00:00 -1,0 -2,3 10 5 14 7 N 33 0,0
16.04.2019 04:00:00 -0,1 -2,3 8 4 14 7 NNW 50 0,0
16.04.2019 03:00:00 0,4 -3,7 10 5 13 7 NNW 50 0,0
16.04.2019 02:00:00 1,4 -2,5 10 5 12 7 WNW 50 0,0
16.04.2019 01:00:00 1,1 -1,8 10 6 11 6 W 50 0,0
16.04.2019 00:00:00 1,8 -1,6 9 5 11 6 W 50 0,0
15.04.2019 23:00:00 1,5 -0,9 11 6 11 6 W 50 0,0
15.04.2019 22:00:00 1,7 -0,7 9 5 10 5 WSW 50 0,0
15.04.2019 21:00:00 1,6 -0,3 8 5 14 8 WSW 50 0,0
15.04.2019 20:00:00 1,6 -0,3 12 7 17 9 SW 50 0,0
15.04.2019 19:00:00 1,8 -0,3 13 7 16 9 SSW 40 0,0
15.04.2019 18:00:00 2,5 -0,3 10 5 13 7 S 37 0,0
15.04.2019 17:00:00 3,2 -0,3 8 5 12 7 S 42 0,0
15.04.2019 16:00:00 3,5 -0,3 10 6 12 7 S 38 0,0
15.04.2019 15:00:00 3,5 -0,2 8 4 10 5 S 41 0,0
15.04.2019 14:00:00 3,3 0,2 5 3 5 3 SSW 40 0,0
15.04.2019 13:00:00 3,3 0,0 4 2 7 4 W 39 0,0
15.04.2019 12:00:00 2,7 -0,2 7 4 8 4 W 39 0,0
15.04.2019 11:00:00 2,4 -0,5 5 3 7 4 WNW 39 0,0
15.04.2019 10:00:00 2,1 -1,7 7 4 9 5 WNW 41 0,0
15.04.2019 09:00:00 1,8 -2,2 7 4 12 7 NNW 38 0,0
15.04.2019 08:00:00 1,2 -2,6 8 5 14 8 NW 39 0,0
15.04.2019 07:00:00 0,4 -3,2 11 6 16 8 NNW 50 0,0
15.04.2019 06:00:00 0,1 -3,1 13 7 19 10 NW 50 0,0
15.04.2019 05:00:00 0,1 -3,6 14 8 19 11 NW 50 0,0
15.04.2019 04:00:00 -0,5 -3,0 12 6 15 8 WNW 50 0,0
15.04.2019 03:00:00 0,7 -1,7 12 7 16 8 W 50 0,0
15.04.2019 02:00:00 1,3 -1,4 12 6 14 7 WSW 50 0,0
15.04.2019 01:00:00 1,3 -1,1 11 6 13 7 SW 50 0,0
15.04.2019 00:00:00 1,3 -1,3 11 6 16 8 WSW 50 0,0
14.04.2019 23:00:00 1,4 -1,0 15 8 22 12 SW 50 0,0
14.04.2019 22:00:00 1,9 -1,4 19 11 25 13 SW 50 0,0
14.04.2019 21:00:00 1,9 -1,5 18 10 21 11 SW 50 0,0
14.04.2019 20:00:00 1,9 -1,4 18 10 21 12 SSW 50 0,0
14.04.2019 19:00:00 2,1 -1,5 18 10 23 13 SSW 50 0,0
14.04.2019 18:00:00 2,2 -1,4 20 11 24 13 SSW 50 0,0
14.04.2019 17:00:00 2,1 -1,2 20 11 23 12 SSW 47 0,0
14.04.2019 16:00:00 1,9 -0,8 17 9 19 11 SSW 34 0,0
14.04.2019 15:00:00 2,1 -1,0 17 9 20 11 SSW 35 0,0
14.04.2019 14:00:00 2,5 -0,4 11 6 13 7 SSW 50 0,0
14.04.2019 13:00:00 2,4 -0,7 8 4 11 6 SW 43 0,0
14.04.2019 12:00:00 1,8 -0,8 10 5 11 6 SW 43 0,0
14.04.2019 11:00:00 2,3 -0,6 7 4 11 6 W 42 0,0
14.04.2019 10:00:00 1,6 -1,5 11 6 14 7 W 45 0,0
14.04.2019 09:00:00 0,9 -2,0 10 6 16 8 WNW 50 0,0
14.04.2019 08:00:00 0,3 -2,7 11 6 14 8 WNW 48 0,0
14.04.2019 07:00:00 0,1 -3,8 10 6 15 8 NW 50 0,0
14.04.2019 06:00:00 0,0 -2,2 11 6 14 8 WNW 50 0,0
14.04.2019 05:00:00 0,5 -1,7 12 7 16 8 W 50 0,0
14.04.2019 04:00:00 0,8 -1,6 9 5 14 7 W 50 0,0
14.04.2019 03:00:00 0,7 -1,9 9 5 16 9 W 50 0,0
14.04.2019 02:00:00 - - - - 14 7 - - -
14.04.2019 01:00:00 1,4 -2,5 13 7 18 10 WSW 50 0,0
14.04.2019 00:00:00 1,5 -2,3 16 8 20 11 WSW 50 0,0
13.04.2019 23:00:00 1,6 -2,7 19 10 21 12 WSW 50 0,0
13.04.2019 22:00:00 1,7 -2,4 19 10 21 12 WSW 50 0,0
13.04.2019 21:00:00 1,7 -2,1 17 9 21 11 SW 50 0,0
13.04.2019 20:00:00 1,8 -2,3 18 10 23 12 SW 50 0,0
13.04.2019 19:00:00 1,7 -1,9 19 10 23 13 SW 50 0,0
13.04.2019 18:00:00 2,0 -1,8 14 7 21 11 SW 41 0,0
13.04.2019 17:00:00 2,0 -1,8 16 9 22 12 SW 50 0,0
13.04.2019 16:00:00 2,0 -2,0 17 9 21 12 SW 47 0,0
13.04.2019 15:00:00 2,5 -1,3 9 5 19 10 SW 46 0,0
13.04.2019 14:00:00 2,2 -1,4 11 6 17 9 S 34 0,0
13.04.2019 13:00:00 1,7 -1,6 14 7 18 10 SSW 50 0,0
13.04.2019 12:00:00 2,9 -1,6 7 4 12 6 WSW 38 0,0
13.04.2019 11:00:00 1,7 -1,7 7 4 12 7 W 50 0,0
13.04.2019 10:00:00 1,4 -1,5 11 6 13 7 W 50 0,0
13.04.2019 09:00:00 1,3 -2,1 8 4 14 7 WNW 50 0,0
13.04.2019 08:00:00 1,0 -2,9 11 6 17 9 WNW 50 0,0
13.04.2019 07:00:00 0,9 -3,0 13 7 18 10 WNW 50 0,0
13.04.2019 06:00:00 0,4 -2,0 13 7 18 10 WNW 50 0,0
13.04.2019 05:00:00 0,5 -1,6 13 7 15 8 WNW 50 0,0
13.04.2019 04:00:00 0,3 -1,5 11 6 14 7 WNW 50 0,0
13.04.2019 03:00:00 0,5 -1,7 11 6 14 8 W 50 0,0
13.04.2019 02:00:00 0,9 -2,3 11 6 17 9 W 50 0,0

tt = Température de l'air
td = dewpoint
ff = Vitesse du vent
fx = gusts
dd = Direction du vent
vv = visibility
rr = Quantités de précipitations

stations d'obs. à proximité